sensor_id;sensor_type;location;lat;lon;timestamp;temperature;humidity
22364;DHT22;11349;53.412;-1.328;2023-06-14T00:01:02;16.00;99.90
22364;DHT22;11349;53.412;-1.328;2023-06-14T00:03:29;15.90;99.90
22364;DHT22;11349;53.412;-1.328;2023-06-14T00:05:55;15.90;99.90
22364;DHT22;11349;53.412;-1.328;2023-06-14T00:08:23;15.80;99.90
22364;DHT22;11349;53.412;-1.328;2023-06-14T00:10:50;15.80;1.00
22364;DHT22;11349;53.412;-1.328;2023-06-14T00:13:16;15.80;1.00
22364;DHT22;11349;53.412;-1.328;2023-06-14T00:15:42;15.70;65.00
22364;DHT22;11349;53.412;-1.328;2023-06-14T00:18:08;15.60;99.90
22364;DHT22;11349;53.412;-1.328;2023-06-14T00:20:35;15.60;99.90
22364;DHT22;11349;53.412;-1.328;2023-06-14T00:23:01;15.50;99.90
22364;DHT22;11349;53.412;-1.328;2023-06-14T00:25:27;15.50;99.90
22364;DHT22;11349;53.412;-1.328;2023-06-14T00:27:54;15.30;1.00
22364;DHT22;11349;53.412;-1.328;2023-06-14T00:30:20;15.30;1.00
22364;DHT22;11349;53.412;-1.328;2023-06-14T00:32:48;15.30;1.00
22364;DHT22;11349;53.412;-1.328;2023-06-14T00:35:15;15.20;34.60
22364;DHT22;11349;53.412;-1.328;2023-06-14T00:37:41;15.20;99.90
22364;DHT22;11349;53.412;-1.328;2023-06-14T00:40:07;15.20;2.70
22364;DHT22;11349;53.412;-1.328;2023-06-14T00:42:33;15.10;99.90
22364;DHT22;11349;53.412;-1.328;2023-06-14T00:45:00;15.10;99.90
22364;DHT22;11349;53.412;-1.328;2023-06-14T00:47:25;15.10;99.90
22364;DHT22;11349;53.412;-1.328;2023-06-14T00:49:53;15.00;99.90
22364;DHT22;11349;53.412;-1.328;2023-06-14T00:52:19;14.90;99.90
22364;DHT22;11349;53.412;-1.328;2023-06-14T00:54:46;14.90;59.20
22364;DHT22;11349;53.412;-1.328;2023-06-14T00:57:12;14.80;99.90
22364;DHT22;11349;53.412;-1.328;2023-06-14T00:59:47;14.80;99.90
22364;DHT22;11349;53.412;-1.328;2023-06-14T01:02:14;14.70;99.90
22364;DHT22;11349;53.412;-1.328;2023-06-14T01:04:45;14.70;99.30
22364;DHT22;11349;53.412;-1.328;2023-06-14T01:09:58;14.60;99.90
22364;DHT22;11349;53.412;-1.328;2023-06-14T01:12:47;14.50;1.00
22364;DHT22;11349;53.412;-1.328;2023-06-14T01:15:14;14.60;99.90
22364;DHT22;11349;53.412;-1.328;2023-06-14T01:17:44;14.50;7.30
22364;DHT22;11349;53.412;-1.328;2023-06-14T01:20:12;14.50;99.90
22364;DHT22;11349;53.412;-1.328;2023-06-14T01:22:51;14.50;1.00
22364;DHT22;11349;53.412;-1.328;2023-06-14T01:25:17;14.40;1.00
22364;DHT22;11349;53.412;-1.328;2023-06-14T01:27:47;14.40;7.20
22364;DHT22;11349;53.412;-1.328;2023-06-14T01:30:14;14.40;99.90
22364;DHT22;11349;53.412;-1.328;2023-06-14T01:32:40;14.30;1.00
22364;DHT22;11349;53.412;-1.328;2023-06-14T01:35:09;14.20;99.90
22364;DHT22;11349;53.412;-1.328;2023-06-14T01:37:35;14.20;99.90
22364;DHT22;11349;53.412;-1.328;2023-06-14T01:40:03;14.10;99.90
22364;DHT22;11349;53.412;-1.328;2023-06-14T01:42:36;14.10;99.90
22364;DHT22;11349;53.412;-1.328;2023-06-14T01:45:03;14.10;99.90
22364;DHT22;11349;53.412;-1.328;2023-06-14T01:47:30;14.00;99.90
22364;DHT22;11349;53.412;-1.328;2023-06-14T01:49:57;14.00;99.90
22364;DHT22;11349;53.412;-1.328;2023-06-14T01:52:23;13.90;99.90
22364;DHT22;11349;53.412;-1.328;2023-06-14T01:54:50;13.90;99.90
22364;DHT22;11349;53.412;-1.328;2023-06-14T01:57:16;13.80;1.00
22364;DHT22;11349;53.412;-1.328;2023-06-14T01:59:42;13.90;99.90
22364;DHT22;11349;53.412;-1.328;2023-06-14T02:02:08;13.80;99.90
22364;DHT22;11349;53.412;-1.328;2023-06-14T02:04:34;13.70;1.00
22364;DHT22;11349;53.412;-1.328;2023-06-14T02:07:00;13.60;1.00
22364;DHT22;11349;53.412;-1.328;2023-06-14T02:09:26;13.50;99.90
22364;DHT22;11349;53.412;-1.328;2023-06-14T02:11:51;13.50;99.90
22364;DHT22;11349;53.412;-1.328;2023-06-14T02:14:17;13.30;99.90
22364;DHT22;11349;53.412;-1.328;2023-06-14T02:16:43;13.30;99.90
22364;DHT22;11349;53.412;-1.328;2023-06-14T02:19:18;13.30;1.00
22364;DHT22;11349;53.412;-1.328;2023-06-14T02:21:44;13.30;1.00
22364;DHT22;11349;53.412;-1.328;2023-06-14T02:24:10;13.30;1.00
22364;DHT22;11349;53.412;-1.328;2023-06-14T02:26:36;13.30;1.00
22364;DHT22;11349;53.412;-1.328;2023-06-14T02:29:08;13.30;1.00
22364;DHT22;11349;53.412;-1.328;2023-06-14T02:31:36;13.20;99.90
22364;DHT22;11349;53.412;-1.328;2023-06-14T02:34:02;13.10;99.90
22364;DHT22;11349;53.412;-1.328;2023-06-14T02:36:28;13.10;99.90
22364;DHT22;11349;53.412;-1.328;2023-06-14T02:38:57;13.20;99.90
22364;DHT22;11349;53.412;-1.328;2023-06-14T02:41:26;13.10;99.90
22364;DHT22;11349;53.412;-1.328;2023-06-14T02:43:52;13.10;99.90
22364;DHT22;11349;53.412;-1.328;2023-06-14T02:46:18;13.10;99.90
22364;DHT22;11349;53.412;-1.328;2023-06-14T02:48:44;13.00;99.90
22364;DHT22;11349;53.412;-1.328;2023-06-14T02:51:10;13.00;99.90
22364;DHT22;11349;53.412;-1.328;2023-06-14T02:53:38;13.00;99.90
22364;DHT22;11349;53.412;-1.328;2023-06-14T02:56:03;13.00;99.90
22364;DHT22;11349;53.412;-1.328;2023-06-14T02:58:32;12.90;99.90
22364;DHT22;11349;53.412;-1.328;2023-06-14T03:00:58;12.90;99.90
22364;DHT22;11349;53.412;-1.328;2023-06-14T03:03:28;12.90;99.90
22364;DHT22;11349;53.412;-1.328;2023-06-14T03:05:54;12.90;99.90
22364;DHT22;11349;53.412;-1.328;2023-06-14T03:08:20;12.80;99.90
22364;DHT22;11349;53.412;-1.328;2023-06-14T03:10:46;12.80;99.90
22364;DHT22;11349;53.412;-1.328;2023-06-14T03:13:13;12.80;99.90
22364;DHT22;11349;53.412;-1.328;2023-06-14T03:15:39;12.80;99.90
22364;DHT22;11349;53.412;-1.328;2023-06-14T03:18:08;12.70;99.90
22364;DHT22;11349;53.412;-1.328;2023-06-14T03:20:35;12.70;99.90
22364;DHT22;11349;53.412;-1.328;2023-06-14T03:23:02;12.70;99.90
22364;DHT22;11349;53.412;-1.328;2023-06-14T03:25:28;12.70;99.90
22364;DHT22;11349;53.412;-1.328;2023-06-14T03:27:57;12.60;99.90
22364;DHT22;11349;53.412;-1.328;2023-06-14T03:30:23;12.70;99.90
22364;DHT22;11349;53.412;-1.328;2023-06-14T03:32:49;12.60;99.90
22364;DHT22;11349;53.412;-1.328;2023-06-14T03:35:17;12.60;99.90
22364;DHT22;11349;53.412;-1.328;2023-06-14T03:37:44;12.60;99.90
22364;DHT22;11349;53.412;-1.328;2023-06-14T03:40:11;12.60;99.90
22364;DHT22;11349;53.412;-1.328;2023-06-14T03:42:36;12.60;99.90
22364;DHT22;11349;53.412;-1.328;2023-06-14T03:45:02;12.60;99.90
22364;DHT22;11349;53.412;-1.328;2023-06-14T03:47:28;12.50;99.90
22364;DHT22;11349;53.412;-1.328;2023-06-14T03:49:54;12.50;99.90
22364;DHT22;11349;53.412;-1.328;2023-06-14T03:52:19;12.50;99.90
22364;DHT22;11349;53.412;-1.328;2023-06-14T03:54:47;12.60;99.90
22364;DHT22;11349;53.412;-1.328;2023-06-14T03:57:13;12.50;99.90
22364;DHT22;11349;53.412;-1.328;2023-06-14T03:59:39;12.60;99.90
22364;DHT22;11349;53.412;-1.328;2023-06-14T04:02:05;12.50;99.90
22364;DHT22;11349;53.412;-1.328;2023-06-14T04:04:30;12.40;99.90
22364;DHT22;11349;53.412;-1.328;2023-06-14T04:06:57;12.40;99.90
22364;DHT22;11349;53.412;-1.328;2023-06-14T04:09:24;12.30;99.90
22364;DHT22;11349;53.412;-1.328;2023-06-14T04:11:53;12.30;99.90
22364;DHT22;11349;53.412;-1.328;2023-06-14T04:14:19;12.30;99.90
22364;DHT22;11349;53.412;-1.328;2023-06-14T04:16:46;12.30;99.90
22364;DHT22;11349;53.412;-1.328;2023-06-14T04:19:12;12.30;99.90
22364;DHT22;11349;53.412;-1.328;2023-06-14T04:21:38;12.30;99.90
22364;DHT22;11349;53.412;-1.328;2023-06-14T04:24:04;12.20;99.90
22364;DHT22;11349;53.412;-1.328;2023-06-14T04:26:30;12.30;99.90
22364;DHT22;11349;53.412;-1.328;2023-06-14T04:29:02;12.30;99.90
22364;DHT22;11349;53.412;-1.328;2023-06-14T04:31:29;12.30;99.90
22364;DHT22;11349;53.412;-1.328;2023-06-14T04:33:56;12.40;99.90
22364;DHT22;11349;53.412;-1.328;2023-06-14T04:36:21;12.40;99.90
22364;DHT22;11349;53.412;-1.328;2023-06-14T04:38:47;12.40;1.00
22364;DHT22;11349;53.412;-1.328;2023-06-14T04:41:14;12.50;1.00
22364;DHT22;11349;53.412;-1.328;2023-06-14T04:43:41;12.50;1.00
22364;DHT22;11349;53.412;-1.328;2023-06-14T04:46:08;12.60;1.00
22364;DHT22;11349;53.412;-1.328;2023-06-14T04:48:40;12.50;1.00
22364;DHT22;11349;53.412;-1.328;2023-06-14T04:51:11;12.50;11.60
22364;DHT22;11349;53.412;-1.328;2023-06-14T04:53:36;12.50;1.00
22364;DHT22;11349;53.412;-1.328;2023-06-14T04:56:02;12.50;1.00
22364;DHT22;11349;53.412;-1.328;2023-06-14T04:58:29;12.50;1.00
22364;DHT22;11349;53.412;-1.328;2023-06-14T05:00:55;12.60;1.00
22364;DHT22;11349;53.412;-1.328;2023-06-14T05:03:25;12.70;1.00
22364;DHT22;11349;53.412;-1.328;2023-06-14T05:05:51;12.70;1.00
22364;DHT22;11349;53.412;-1.328;2023-06-14T05:08:20;12.80;1.00
22364;DHT22;11349;53.412;-1.328;2023-06-14T05:10:46;12.80;99.90
22364;DHT22;11349;53.412;-1.328;2023-06-14T05:13:11;12.80;99.90
22364;DHT22;11349;53.412;-1.328;2023-06-14T05:15:37;12.80;1.00
22364;DHT22;11349;53.412;-1.328;2023-06-14T05:18:03;12.80;99.90
22364;DHT22;11349;53.412;-1.328;2023-06-14T05:20:28;13.00;99.90
22364;DHT22;11349;53.412;-1.328;2023-06-14T05:22:54;13.10;99.90
22364;DHT22;11349;53.412;-1.328;2023-06-14T05:25:20;13.30;99.90
22364;DHT22;11349;53.412;-1.328;2023-06-14T05:27:47;13.30;99.90
22364;DHT22;11349;53.412;-1.328;2023-06-14T05:30:14;13.40;1.00
22364;DHT22;11349;53.412;-1.328;2023-06-14T05:32:40;13.50;1.00
22364;DHT22;11349;53.412;-1.328;2023-06-14T05:35:06;13.40;75.20
22364;DHT22;11349;53.412;-1.328;2023-06-14T05:37:32;13.70;1.00
22364;DHT22;11349;53.412;-1.328;2023-06-14T05:39:58;14.00;99.90
22364;DHT22;11349;53.412;-1.328;2023-06-14T05:42:23;14.10;99.90
22364;DHT22;11349;53.412;-1.328;2023-06-14T05:44:49;14.20;99.90
22364;DHT22;11349;53.412;-1.328;2023-06-14T05:47:15;14.20;99.90
22364;DHT22;11349;53.412;-1.328;2023-06-14T05:49:41;14.10;99.90
22364;DHT22;11349;53.412;-1.328;2023-06-14T05:52:07;14.00;99.90
22364;DHT22;11349;53.412;-1.328;2023-06-14T05:54:33;14.00;99.90
22364;DHT22;11349;53.412;-1.328;2023-06-14T05:56:58;14.10;99.90
22364;DHT22;11349;53.412;-1.328;2023-06-14T05:59:27;14.00;1.00
22364;DHT22;11349;53.412;-1.328;2023-06-14T06:01:53;14.10;99.90
22364;DHT22;11349;53.412;-1.328;2023-06-14T06:04:19;14.00;1.00
22364;DHT22;11349;53.412;-1.328;2023-06-14T06:06:45;14.00;1.00
22364;DHT22;11349;53.412;-1.328;2023-06-14T06:09:12;14.10;1.00
22364;DHT22;11349;53.412;-1.328;2023-06-14T06:11:40;14.10;1.00
22364;DHT22;11349;53.412;-1.328;2023-06-14T06:14:05;14.10;20.00
22364;DHT22;11349;53.412;-1.328;2023-06-14T06:16:31;14.20;1.00
22364;DHT22;11349;53.412;-1.328;2023-06-14T06:18:57;14.30;24.60
22364;DHT22;11349;53.412;-1.328;2023-06-14T06:21:23;14.30;55.10
22364;DHT22;11349;53.412;-1.328;2023-06-14T06:23:48;14.40;99.90
22364;DHT22;11349;53.412;-1.328;2023-06-14T06:26:14;14.50;99.90
22364;DHT22;11349;53.412;-1.328;2023-06-14T06:28:40;14.70;1.00
22364;DHT22;11349;53.412;-1.328;2023-06-14T06:31:06;14.80;1.00
22364;DHT22;11349;53.412;-1.328;2023-06-14T06:33:32;15.00;1.00
22364;DHT22;11349;53.412;-1.328;2023-06-14T06:35:57;15.30;99.90
22364;DHT22;11349;53.412;-1.328;2023-06-14T06:38:23;15.70;99.90
22364;DHT22;11349;53.412;-1.328;2023-06-14T06:40:49;16.10;99.90
22364;DHT22;11349;53.412;-1.328;2023-06-14T06:43:14;16.70;1.00
22364;DHT22;11349;53.412;-1.328;2023-06-14T06:45:42;17.20;99.90
22364;DHT22;11349;53.412;-1.328;2023-06-14T06:48:08;17.90;91.50
22364;DHT22;11349;53.412;-1.328;2023-06-14T06:50:36;18.30;1.00
22364;DHT22;11349;53.412;-1.328;2023-06-14T06:53:02;18.60;1.00
22364;DHT22;11349;53.412;-1.328;2023-06-14T06:55:28;19.10;1.00
22364;DHT22;11349;53.412;-1.328;2023-06-14T06:57:53;19.60;99.90
22364;DHT22;11349;53.412;-1.328;2023-06-14T07:00:20;19.90;99.90
22364;DHT22;11349;53.412;-1.328;2023-06-14T07:02:46;20.30;99.90
22364;DHT22;11349;53.412;-1.328;2023-06-14T07:05:12;20.60;1.00
22364;DHT22;11349;53.412;-1.328;2023-06-14T07:07:38;21.10;99.90
22364;DHT22;11349;53.412;-1.328;2023-06-14T07:10:04;21.40;99.90
22364;DHT22;11349;53.412;-1.328;2023-06-14T07:12:34;21.80;1.00
22364;DHT22;11349;53.412;-1.328;2023-06-14T07:15:05;21.90;1.00
22364;DHT22;11349;53.412;-1.328;2023-06-14T07:17:32;22.40;99.90
22364;DHT22;11349;53.412;-1.328;2023-06-14T07:19:57;22.40;1.00
22364;DHT22;11349;53.412;-1.328;2023-06-14T07:22:23;22.60;1.00
22364;DHT22;11349;53.412;-1.328;2023-06-14T07:24:49;22.80;99.90
22364;DHT22;11349;53.412;-1.328;2023-06-14T07:27:15;23.30;99.90
22364;DHT22;11349;53.412;-1.328;2023-06-14T07:29:40;23.70;99.90
22364;DHT22;11349;53.412;-1.328;2023-06-14T07:32:07;24.00;99.90
22364;DHT22;11349;53.412;-1.328;2023-06-14T07:34:32;23.70;1.00
22364;DHT22;11349;53.412;-1.328;2023-06-14T07:36:58;23.90;1.00
22364;DHT22;11349;53.412;-1.328;2023-06-14T07:39:23;24.20;1.00
22364;DHT22;11349;53.412;-1.328;2023-06-14T07:41:49;24.60;99.90
22364;DHT22;11349;53.412;-1.328;2023-06-14T07:44:15;25.00;99.90
22364;DHT22;11349;53.412;-1.328;2023-06-14T07:46:41;24.50;99.90
22364;DHT22;11349;53.412;-1.328;2023-06-14T07:49:07;25.30;87.90
22364;DHT22;11349;53.412;-1.328;2023-06-14T07:51:33;25.80;18.70
22364;DHT22;11349;53.412;-1.328;2023-06-14T07:54:00;26.20;99.90
22364;DHT22;11349;53.412;-1.328;2023-06-14T07:56:28;25.50;99.90
22364;DHT22;11349;53.412;-1.328;2023-06-14T07:58:54;25.70;99.90
22364;DHT22;11349;53.412;-1.328;2023-06-14T08:01:20;26.20;99.90
22364;DHT22;11349;53.412;-1.328;2023-06-14T08:03:46;25.90;99.90
22364;DHT22;11349;53.412;-1.328;2023-06-14T08:06:11;25.90;92.10
22364;DHT22;11349;53.412;-1.328;2023-06-14T08:08:37;26.00;22.70
22364;DHT22;11349;53.412;-1.328;2023-06-14T08:11:03;26.80;1.00
22364;DHT22;11349;53.412;-1.328;2023-06-14T08:13:28;27.20;1.00
22364;DHT22;11349;53.412;-1.328;2023-06-14T08:15:54;27.80;1.00
22364;DHT22;11349;53.412;-1.328;2023-06-14T08:18:22;28.00;1.00
22364;DHT22;11349;53.412;-1.328;2023-06-14T08:20:48;28.10;1.00
22364;DHT22;11349;53.412;-1.328;2023-06-14T08:23:14;27.20;99.90
22364;DHT22;11349;53.412;-1.328;2023-06-14T08:25:39;27.70;1.00
22364;DHT22;11349;53.412;-1.328;2023-06-14T08:28:05;27.20;1.00
22364;DHT22;11349;53.412;-1.328;2023-06-14T08:30:31;27.70;99.90
22364;DHT22;11349;53.412;-1.328;2023-06-14T08:32:57;28.00;99.90
22364;DHT22;11349;53.412;-1.328;2023-06-14T08:35:23;27.50;99.90
22364;DHT22;11349;53.412;-1.328;2023-06-14T08:37:49;28.40;99.90
22364;DHT22;11349;53.412;-1.328;2023-06-14T08:40:20;27.90;99.90
22364;DHT22;11349;53.412;-1.328;2023-06-14T08:42:52;28.00;99.90
22364;DHT22;11349;53.412;-1.328;2023-06-14T08:45:23;28.00;99.90
22364;DHT22;11349;53.412;-1.328;2023-06-14T08:47:53;27.50;99.90
22364;DHT22;11349;53.412;-1.328;2023-06-14T08:50:26;28.20;99.90
22364;DHT22;11349;53.412;-1.328;2023-06-14T08:52:57;27.80;99.90
22364;DHT22;11349;53.412;-1.328;2023-06-14T08:55:31;28.60;99.90
22364;DHT22;11349;53.412;-1.328;2023-06-14T08:57:58;28.70;99.90
22364;DHT22;11349;53.412;-1.328;2023-06-14T09:00:25;29.00;99.90
22364;DHT22;11349;53.412;-1.328;2023-06-14T09:02:52;28.10;99.90
22364;DHT22;11349;53.412;-1.328;2023-06-14T09:05:23;28.50;99.90
22364;DHT22;11349;53.412;-1.328;2023-06-14T09:07:49;28.50;99.90
22364;DHT22;11349;53.412;-1.328;2023-06-14T09:10:16;28.80;99.90
22364;DHT22;11349;53.412;-1.328;2023-06-14T09:12:42;28.50;99.90
22364;DHT22;11349;53.412;-1.328;2023-06-14T09:15:09;28.10;99.90
22364;DHT22;11349;53.412;-1.328;2023-06-14T09:17:36;28.10;99.90
22364;DHT22;11349;53.412;-1.328;2023-06-14T09:20:06;28.50;99.90
22364;DHT22;11349;53.412;-1.328;2023-06-14T09:22:33;28.10;99.90
22364;DHT22;11349;53.412;-1.328;2023-06-14T09:24:59;28.20;99.90
22364;DHT22;11349;53.412;-1.328;2023-06-14T09:27:26;28.30;99.90
22364;DHT22;11349;53.412;-1.328;2023-06-14T09:29:55;28.10;99.90
22364;DHT22;11349;53.412;-1.328;2023-06-14T09:32:21;28.30;99.90
22364;DHT22;11349;53.412;-1.328;2023-06-14T09:34:47;28.00;99.90
22364;DHT22;11349;53.412;-1.328;2023-06-14T09:37:13;27.20;99.90
22364;DHT22;11349;53.412;-1.328;2023-06-14T09:39:51;27.50;99.90
22364;DHT22;11349;53.412;-1.328;2023-06-14T09:42:18;26.90;99.90
22364;DHT22;11349;53.412;-1.328;2023-06-14T09:44:47;25.80;99.90
22364;DHT22;11349;53.412;-1.328;2023-06-14T09:47:15;26.30;99.90
22364;DHT22;11349;53.412;-1.328;2023-06-14T09:49:41;26.50;99.90
22364;DHT22;11349;53.412;-1.328;2023-06-14T09:52:08;26.30;99.90
22364;DHT22;11349;53.412;-1.328;2023-06-14T09:54:40;26.40;99.90
22364;DHT22;11349;53.412;-1.328;2023-06-14T09:57:12;26.20;99.90
22364;DHT22;11349;53.412;-1.328;2023-06-14T09:59:42;26.10;99.90
22364;DHT22;11349;53.412;-1.328;2023-06-14T10:04:48;25.80;99.90
22364;DHT22;11349;53.412;-1.328;2023-06-14T10:07:19;25.80;99.90
22364;DHT22;11349;53.412;-1.328;2023-06-14T10:09:47;25.50;99.90
22364;DHT22;11349;53.412;-1.328;2023-06-14T10:12:18;25.00;99.90
22364;DHT22;11349;53.412;-1.328;2023-06-14T10:14:50;24.80;99.90
22364;DHT22;11349;53.412;-1.328;2023-06-14T10:23:02;25.00;99.90
22364;DHT22;11349;53.412;-1.328;2023-06-14T10:25:30;25.00;99.90
22364;DHT22;11349;53.412;-1.328;2023-06-14T10:28:28;24.80;99.90
22364;DHT22;11349;53.412;-1.328;2023-06-14T10:31:12;24.30;98.30
22364;DHT22;11349;53.412;-1.328;2023-06-14T10:33:49;24.20;99.90
22364;DHT22;11349;53.412;-1.328;2023-06-14T10:36:28;24.50;99.90
22364;DHT22;11349;53.412;-1.328;2023-06-14T10:39:17;24.30;99.90
22364;DHT22;11349;53.412;-1.328;2023-06-14T10:41:54;24.10;99.90
22364;DHT22;11349;53.412;-1.328;2023-06-14T10:46:49;23.80;99.90
22364;DHT22;11349;53.412;-1.328;2023-06-14T10:49:18;23.90;99.90
22364;DHT22;11349;53.412;-1.328;2023-06-14T10:51:53;23.80;99.90
22364;DHT22;11349;53.412;-1.328;2023-06-14T10:54:22;24.20;99.90
22364;DHT22;11349;53.412;-1.328;2023-06-14T10:56:51;24.20;99.90
22364;DHT22;11349;53.412;-1.328;2023-06-14T10:59:18;24.10;91.70
22364;DHT22;11349;53.412;-1.328;2023-06-14T11:05:04;24.10;99.90
22364;DHT22;11349;53.412;-1.328;2023-06-14T11:10:26;24.20;99.90
22364;DHT22;11349;53.412;-1.328;2023-06-14T11:12:55;24.00;99.90
22364;DHT22;11349;53.412;-1.328;2023-06-14T11:15:28;24.10;99.90
22364;DHT22;11349;53.412;-1.328;2023-06-14T11:17:54;24.00;99.90
22364;DHT22;11349;53.412;-1.328;2023-06-14T11:20:25;24.10;99.90
22364;DHT22;11349;53.412;-1.328;2023-06-14T11:22:51;24.30;99.90
22364;DHT22;11349;53.412;-1.328;2023-06-14T11:25:17;24.00;99.90
22364;DHT22;11349;53.412;-1.328;2023-06-14T11:27:44;24.10;99.90
22364;DHT22;11349;53.412;-1.328;2023-06-14T11:30:10;23.90;99.90
22364;DHT22;11349;53.412;-1.328;2023-06-14T11:32:37;24.00;99.90
22364;DHT22;11349;53.412;-1.328;2023-06-14T11:35:04;24.00;99.90
22364;DHT22;11349;53.412;-1.328;2023-06-14T11:37:30;24.10;99.90
22364;DHT22;11349;53.412;-1.328;2023-06-14T11:39:58;24.10;99.90
22364;DHT22;11349;53.412;-1.328;2023-06-14T11:42:27;23.80;99.90
22364;DHT22;11349;53.412;-1.328;2023-06-14T11:44:54;23.80;99.90
22364;DHT22;11349;53.412;-1.328;2023-06-14T11:47:20;23.70;99.90
22364;DHT22;11349;53.412;-1.328;2023-06-14T11:49:47;24.00;99.90
22364;DHT22;11349;53.412;-1.328;2023-06-14T11:52:15;23.80;99.90
22364;DHT22;11349;53.412;-1.328;2023-06-14T11:54:41;23.80;99.90
22364;DHT22;11349;53.412;-1.328;2023-06-14T11:57:07;23.70;99.90
22364;DHT22;11349;53.412;-1.328;2023-06-14T11:59:40;23.90;99.90
22364;DHT22;11349;53.412;-1.328;2023-06-14T12:02:06;24.10;99.90
22364;DHT22;11349;53.412;-1.328;2023-06-14T12:04:32;24.20;99.90
22364;DHT22;11349;53.412;-1.328;2023-06-14T12:07:12;24.20;99.90
22364;DHT22;11349;53.412;-1.328;2023-06-14T12:09:41;24.00;99.90
22364;DHT22;11349;53.412;-1.328;2023-06-14T12:12:09;23.90;99.90
22364;DHT22;11349;53.412;-1.328;2023-06-14T12:14:36;24.10;99.90
22364;DHT22;11349;53.412;-1.328;2023-06-14T12:17:07;24.10;99.90
22364;DHT22;11349;53.412;-1.328;2023-06-14T12:19:43;24.10;99.90
22364;DHT22;11349;53.412;-1.328;2023-06-14T12:22:11;24.20;95.00
22364;DHT22;11349;53.412;-1.328;2023-06-14T12:24:37;24.10;99.90
22364;DHT22;11349;53.412;-1.328;2023-06-14T12:27:04;24.20;99.90
22364;DHT22;11349;53.412;-1.328;2023-06-14T12:29:32;24.20;99.90
22364;DHT22;11349;53.412;-1.328;2023-06-14T12:31:58;24.10;99.90
22364;DHT22;11349;53.412;-1.328;2023-06-14T12:34:25;24.20;99.90
22364;DHT22;11349;53.412;-1.328;2023-06-14T12:36:52;24.20;99.90
22364;DHT22;11349;53.412;-1.328;2023-06-14T12:39:18;24.10;99.90
22364;DHT22;11349;53.412;-1.328;2023-06-14T12:41:44;24.20;99.90
22364;DHT22;11349;53.412;-1.328;2023-06-14T12:44:11;24.20;99.90
22364;DHT22;11349;53.412;-1.328;2023-06-14T12:46:38;24.30;99.90
22364;DHT22;11349;53.412;-1.328;2023-06-14T12:49:05;24.20;99.90
22364;DHT22;11349;53.412;-1.328;2023-06-14T12:51:32;24.20;99.90
22364;DHT22;11349;53.412;-1.328;2023-06-14T12:53:58;24.20;99.90
22364;DHT22;11349;53.412;-1.328;2023-06-14T12:56:23;24.30;99.90
22364;DHT22;11349;53.412;-1.328;2023-06-14T12:58:49;24.10;99.90
22364;DHT22;11349;53.412;-1.328;2023-06-14T13:01:15;24.00;99.90
22364;DHT22;11349;53.412;-1.328;2023-06-14T13:03:40;24.20;99.90
22364;DHT22;11349;53.412;-1.328;2023-06-14T13:06:06;24.20;90.30
22364;DHT22;11349;53.412;-1.328;2023-06-14T13:08:32;24.20;85.50
22364;DHT22;11349;53.412;-1.328;2023-06-14T13:10:57;24.30;75.00
22364;DHT22;11349;53.412;-1.328;2023-06-14T13:13:23;24.10;26.70
22364;DHT22;11349;53.412;-1.328;2023-06-14T13:15:50;24.00;42.20
22364;DHT22;11349;53.412;-1.328;2023-06-14T13:18:16;24.10;42.50
22364;DHT22;11349;53.412;-1.328;2023-06-14T13:20:42;24.10;46.20
22364;DHT22;11349;53.412;-1.328;2023-06-14T13:23:08;24.10;99.90
22364;DHT22;11349;53.412;-1.328;2023-06-14T13:25:36;24.00;99.90
22364;DHT22;11349;53.412;-1.328;2023-06-14T13:28:02;24.00;29.60
22364;DHT22;11349;53.412;-1.328;2023-06-14T13:30:28;23.80;58.30
22364;DHT22;11349;53.412;-1.328;2023-06-14T13:32:53;23.80;35.40
22364;DHT22;11349;53.412;-1.328;2023-06-14T13:35:19;23.80;67.80
22364;DHT22;11349;53.412;-1.328;2023-06-14T13:37:45;23.90;28.00
22364;DHT22;11349;53.412;-1.328;2023-06-14T13:40:11;24.00;46.90
22364;DHT22;11349;53.412;-1.328;2023-06-14T13:42:37;24.00;99.90
22364;DHT22;11349;53.412;-1.328;2023-06-14T13:45:04;23.80;72.10
22364;DHT22;11349;53.412;-1.328;2023-06-14T13:47:31;23.80;48.60
22364;DHT22;11349;53.412;-1.328;2023-06-14T13:49:57;24.00;47.70
22364;DHT22;11349;53.412;-1.328;2023-06-14T13:52:24;24.00;63.60
22364;DHT22;11349;53.412;-1.328;2023-06-14T13:54:49;23.80;48.10
22364;DHT22;11349;53.412;-1.328;2023-06-14T13:57:16;23.80;55.70
22364;DHT22;11349;53.412;-1.328;2023-06-14T13:59:42;23.70;37.20
22364;DHT22;11349;53.412;-1.328;2023-06-14T14:02:10;23.90;71.40
22364;DHT22;11349;53.412;-1.328;2023-06-14T14:04:35;24.00;78.50
22364;DHT22;11349;53.412;-1.328;2023-06-14T14:07:03;24.00;26.40
22364;DHT22;11349;53.412;-1.328;2023-06-14T14:09:29;23.60;18.50
22364;DHT22;11349;53.412;-1.328;2023-06-14T14:11:54;23.90;22.20
22364;DHT22;11349;53.412;-1.328;2023-06-14T14:14:21;23.90;23.80
22364;DHT22;11349;53.412;-1.328;2023-06-14T14:16:47;23.80;29.40
22364;DHT22;11349;53.412;-1.328;2023-06-14T14:19:12;23.80;25.20
22364;DHT22;11349;53.412;-1.328;2023-06-14T14:21:38;24.00;32.30
22364;DHT22;11349;53.412;-1.328;2023-06-14T14:24:04;23.90;20.80
22364;DHT22;11349;53.412;-1.328;2023-06-14T14:26:30;23.80;99.90
22364;DHT22;11349;53.412;-1.328;2023-06-14T14:28:56;23.80;38.40
22364;DHT22;11349;53.412;-1.328;2023-06-14T14:31:21;23.80;99.90
22364;DHT22;11349;53.412;-1.328;2023-06-14T14:33:47;23.80;99.70
22364;DHT22;11349;53.412;-1.328;2023-06-14T14:36:13;24.00;99.90
22364;DHT22;11349;53.412;-1.328;2023-06-14T14:38:39;24.10;97.10
22364;DHT22;11349;53.412;-1.328;2023-06-14T14:41:05;24.10;83.60
22364;DHT22;11349;53.412;-1.328;2023-06-14T14:43:30;24.20;66.50
22364;DHT22;11349;53.412;-1.328;2023-06-14T14:45:57;24.10;76.20
22364;DHT22;11349;53.412;-1.328;2023-06-14T14:48:23;24.10;76.90
22364;DHT22;11349;53.412;-1.328;2023-06-14T14:50:49;24.10;99.90
22364;DHT22;11349;53.412;-1.328;2023-06-14T14:53:14;24.10;90.50
22364;DHT22;11349;53.412;-1.328;2023-06-14T14:55:44;24.10;79.70
22364;DHT22;11349;53.412;-1.328;2023-06-14T14:58:09;23.80;66.00
22364;DHT22;11349;53.412;-1.328;2023-06-14T15:00:35;23.90;77.10
22364;DHT22;11349;53.412;-1.328;2023-06-14T15:03:01;24.00;92.30
22364;DHT22;11349;53.412;-1.328;2023-06-14T15:05:27;24.00;40.90
22364;DHT22;11349;53.412;-1.328;2023-06-14T15:07:52;23.90;59.30
22364;DHT22;11349;53.412;-1.328;2023-06-14T15:10:18;24.00;48.60
22364;DHT22;11349;53.412;-1.328;2023-06-14T15:12:44;23.90;42.30
22364;DHT22;11349;53.412;-1.328;2023-06-14T15:15:10;23.90;51.50
22364;DHT22;11349;53.412;-1.328;2023-06-14T15:17:36;23.70;96.80
22364;DHT22;11349;53.412;-1.328;2023-06-14T15:20:02;23.80;99.90
22364;DHT22;11349;53.412;-1.328;2023-06-14T15:22:28;23.60;37.40
22364;DHT22;11349;53.412;-1.328;2023-06-14T15:24:53;23.80;50.00
22364;DHT22;11349;53.412;-1.328;2023-06-14T15:27:19;23.80;55.90
22364;DHT22;11349;53.412;-1.328;2023-06-14T15:29:45;23.90;66.00
22364;DHT22;11349;53.412;-1.328;2023-06-14T15:32:12;23.80;53.20
22364;DHT22;11349;53.412;-1.328;2023-06-14T15:34:38;23.60;39.00
22364;DHT22;11349;53.412;-1.328;2023-06-14T15:37:06;23.50;45.30